Time;durP1;ratioP1;P1;durP2;ratioP2;P2;SDS_P1;SDS_P2;PMS_P1;PMS_P2;Temp;Humidity;BMP_temperature;BMP_pressure;BME280_temperature;BME280_humidity;BME280_pressure;Samples;Min_cycle;Max_cycle;Signal;HPM_P1;HPM_P2
2024/01/06 00:15:49;;;;;;;77.30;73.10;;;;;;;;;;6133814;23;20036;-89
2024/01/06 00:18:33;;;;;;;74.22;70.13;;;;;;;;;;6111059;23;20067;-89
2024/01/06 00:21:18;;;;;;;73.63;69.63;;;;;;;;;;6111311;23;20021;-88
2024/01/06 00:24:16;;;;;;;73.03;69.13;;;;;;;;;;6111422;23;20041;-90
2024/01/06 00:27:06;;;;;;;74.97;70.88;;;;;;;;;;6111483;23;20107;-88
2024/01/06 00:29:53;;;;;;;71.68;67.47;;;;;;;;;;6111605;23;20352;-89
2024/01/06 00:43:34;;;;;;;68.03;64.32;;;;;;;;;;6133375;23;20020;-88
2024/01/06 00:46:21;;;;;;;71.70;68.00;;;;;;;;;;6112879;23;20021;-89
2024/01/06 00:56:47;;;;;;;76.22;72.35;;;;;;;;;;6124656;23;20080;-88
2024/01/06 01:03:06;;;;;;;73.63;69.97;;;;;;;;;;6135066;23;20056;-88
2024/01/06 01:05:50;;;;;;;72.85;68.95;;;;;;;;;;6113685;23;20065;-89
2024/01/06 01:08:40;;;;;;;76.32;72.63;;;;;;;;;;6111964;23;20021;-89
2024/01/06 01:11:40;;;;;;;75.03;71.15;;;;;;;;;;6112019;23;20081;-89
2024/01/06 01:14:28;;;;;;;73.85;70.15;;;;;;;;;;6111997;23;20487;-89
2024/01/06 01:17:30;;;;;;;77.88;73.95;;;;;;;;;;6142503;22;20069;-89
2024/01/06 01:20:41;;;;;;;77.00;73.20;;;;;;;;;;6225308;22;20464;-91
2024/01/06 01:23:46;;;;;;;77.25;73.25;;;;;;;;;;6176860;22;20050;-89
2024/01/06 01:30:33;;;;;;;;;;;;;;;;;;;;;
2024/01/06 01:33:28;;;;;;;81.55;77.43;;;;;;;;;;6287636;22;20473;-90
2024/01/06 01:36:34;;;;;;;78.90;74.57;;;;;;;;;;6178993;22;20038;-89
2024/01/06 01:39:18;;;;;;;;;;;;;;;;;;6176898;22;20064;-90
2024/01/06 01:42:06;;;;;;;82.55;78.35;;;;;;;;;;6180664;22;20712;-89
2024/01/06 01:45:00;;;;;;;78.20;74.30;;;;;;;;;;6176146;22;20022;-89
2024/01/06 01:54:28;;;;;;;;;;;;;;;;;;6286891;22;20015;-90
2024/01/06 01:57:20;;;;;;;85.72;81.63;;;;;;;;;;6176852;22;19974;-90
2024/01/06 02:03:30;;;;;;;86.28;82.15;;;;;;;;;;6284688;22;20069;-90
2024/01/06 02:06:26;;;;;;;86.68;82.57;;;;;;;;;;6175402;22;20050;-89
2024/01/06 02:09:28;;;;;;;92.28;87.78;;;;;;;;;;6175642;22;20011;-89
2024/01/06 02:12:13;;;;;;;90.65;86.13;;;;;;;;;;6176144;22;20473;-91
2024/01/06 02:14:58;;;;;;;83.63;79.25;;;;;;;;;;6175963;22;20335;-89
2024/01/06 02:17:42;;;;;;;83.45;79.45;;;;;;;;;;6175529;22;20038;-90
2024/01/06 02:20:33;;;;;;;83.57;79.47;;;;;;;;;;6175822;22;20019;-88
2024/01/06 02:23:18;;;;;;;86.97;82.78;;;;;;;;;;6175467;22;20070;-90
2024/01/06 02:26:16;;;;;;;82.25;78.35;;;;;;;;;;6174139;22;20038;-90
2024/01/06 02:29:06;;;;;;;86.35;82.07;;;;;;;;;;6174808;22;20065;-89
2024/01/06 02:31:54;;;;;;;82.60;78.60;;;;;;;;;;6173991;22;20061;-89
2024/01/06 02:34:38;;;;;;;82.15;78.18;;;;;;;;;;6175456;22;20465;-90
2024/01/06 02:37:22;;;;;;;81.97;78.07;;;;;;;;;;6173810;22;20042;-90
2024/01/06 02:40:06;;;;;;;85.22;80.82;;;;;;;;;;6174229;22;20022;-89
2024/01/06 02:42:50;;;;;;;83.45;79.13;;;;;;;;;;6175413;22;20019;-90
2024/01/06 02:45:40;;;;;;;81.25;77.15;;;;;;;;;;6175092;22;20091;-91
2024/01/06 02:48:24;;;;;;;82.50;78.70;;;;;;;;;;6173768;22;20077;-89
2024/01/06 02:51:08;;;;;;;82.15;78.25;;;;;;;;;;6173344;22;20039;-89
2024/01/06 02:53:52;;;;;;;83.63;79.60;;;;;;;;;;6174124;22;20091;-89
2024/01/06 02:56:38;;;;;;;83.63;79.75;;;;;;;;;;6173972;22;20022;-89
2024/01/06 02:59:22;;;;;;;87.28;82.97;;;;;;;;;;6173448;22;20507;-89
2024/01/06 03:02:06;;;;;;;85.28;81.00;;;;;;;;;;6173431;22;20146;-90
2024/01/06 03:04:50;;;;;;;87.32;82.95;;;;;;;;;;6174245;22;20465;-90
2024/01/06 03:07:34;;;;;;;84.95;80.80;;;;;;;;;;6175774;22;20014;-90
2024/01/06 03:10:18;;;;;;;92.13;87.47;;;;;;;;;;6175565;22;20338;-90
2024/01/06 03:13:02;;;;;;;88.82;84.63;;;;;;;;;;6175271;22;20018;-90
2024/01/06 03:15:46;;;;;;;85.68;81.68;;;;;;;;;;6174604;22;20022;-88
2024/01/06 03:18:30;;;;;;;87.78;83.57;;;;;;;;;;6175180;22;20416;-89
2024/01/06 03:21:18;;;;;;;86.38;82.28;;;;;;;;;;6174530;22;20349;-90
2024/01/06 03:24:02;;;;;;;83.22;79.13;;;;;;;;;;6172422;22;20022;-88
2024/01/06 03:26:46;;;;;;;85.05;80.95;;;;;;;;;;6173506;22;20038;-90
2024/01/06 03:29:30;;;;;;;83.55;79.65;;;;;;;;;;6174383;22;20018;-90
2024/01/06 03:32:14;;;;;;;85.13;81.13;;;;;;;;;;6174656;22;20377;-90
2024/01/06 03:34:58;;;;;;;86.55;82.55;;;;;;;;;;6173953;22;20066;-89
2024/01/06 03:37:43;;;;;;;89.72;85.32;;;;;;;;;;6174170;22;20061;-89
2024/01/06 03:40:27;;;;;;;87.63;83.63;;;;;;;;;;6174665;22;20095;-90
2024/01/06 03:43:11;;;;;;;90.78;86.07;;;;;;;;;;6174342;22;20473;-90
2024/01/06 03:45:56;;;;;;;96.28;91.60;;;;;;;;;;6174706;22;20050;-89
2024/01/06 03:48:40;;;;;;;98.93;93.88;;;;;;;;;;6174224;22;20050;-88
2024/01/06 03:51:24;;;;;;;90.95;86.65;;;;;;;;;;6174955;22;20094;-89
2024/01/06 03:54:08;;;;;;;95.93;91.22;;;;;;;;;;6174494;22;20073;-90
2024/01/06 03:56:52;;;;;;;95.75;91.05;;;;;;;;;;6172148;22;20021;-89
2024/01/06 03:59:36;;;;;;;92.82;88.50;;;;;;;;;;6173046;22;20023;-88
2024/01/06 04:02:20;;;;;;;88.88;84.78;;;;;;;;;;6171935;22;20105;-89
2024/01/06 04:05:05;;;;;;;90.68;86.28;;;;;;;;;;6172238;22;20014;-89
2024/01/06 04:07:49;;;;;;;92.68;88.07;;;;;;;;;;6172358;22;20058;-89
2024/01/06 04:10:33;;;;;;;91.78;87.13;;;;;;;;;;6172648;22;20402;-89
2024/01/06 04:13:18;;;;;;;92.13;87.85;;;;;;;;;;6171262;22;20023;-90
2024/01/06 04:16:02;;;;;;;94.45;90.15;;;;;;;;;;6170607;22;20022;-90
2024/01/06 04:18:46;;;;;;;102.50;97.72;;;;;;;;;;6214624;23;20093;-87
2024/01/06 04:21:30;;;;;;;94.63;90.05;;;;;;;;;;6106320;23;20044;-89
2024/01/06 04:24:14;;;;;;;97.85;93.15;;;;;;;;;;6105900;23;20025;-89
2024/01/06 04:26:58;;;;;;;98.40;93.78;;;;;;;;;;6105641;23;20021;-91
2024/01/06 04:29:42;;;;;;;97.68;92.88;;;;;;;;;;6104935;23;20076;-89
2024/01/06 04:32:26;;;;;;;101.43;96.72;;;;;;;;;;6104852;23;20021;-88
2024/01/06 04:35:10;;;;;;;99.43;94.72;;;;;;;;;;6104377;23;20017;-88
2024/01/06 04:37:54;;;;;;;100.45;95.72;;;;;;;;;;6105003;23;20021;-89
2024/01/06 04:40:38;;;;;;;98.45;93.50;;;;;;;;;;6104034;23;20530;-88
2024/01/06 04:43:22;;;;;;;99.45;94.82;;;;;;;;;;6103651;23;20056;-88
2024/01/06 04:46:06;;;;;;;102.28;97.47;;;;;;;;;;6104261;23;20108;-88
2024/01/06 04:48:50;;;;;;;102.28;97.32;;;;;;;;;;6103410;23;20033;-88
2024/01/06 04:51:34;;;;;;;97.75;93.32;;;;;;;;;;6104085;23;20144;-88
2024/01/06 04:54:18;;;;;;;98.45;93.65;;;;;;;;;;6103621;23;20490;-90
2024/01/06 04:57:03;;;;;;;101.43;96.53;;;;;;;;;;6103302;23;20037;-89
2024/01/06 04:59:47;;;;;;;103.80;97.75;;;;;;;;;;6103518;23;20092;-89
2024/01/06 05:02:31;;;;;;;102.63;97.65;;;;;;;;;;6103387;23;20344;-88
2024/01/06 05:05:14;;;;;;;102.47;96.90;;;;;;;;;;6103600;23;20016;-89
2024/01/06 05:07:59;;;;;;;100.78;95.80;;;;;;;;;;6102754;23;20021;-90
2024/01/06 05:10:44;;;;;;;100.28;95.47;;;;;;;;;;6102482;23;20052;-88
2024/01/06 05:13:27;;;;;;;97.53;92.80;;;;;;;;;;6102683;23;20020;-88
2024/01/06 05:16:11;;;;;;;101.45;96.45;;;;;;;;;;6125817;23;20024;-88
2024/01/06 05:18:55;;;;;;;98.65;93.85;;;;;;;;;;6132941;23;20448;-90
2024/01/06 05:21:39;;;;;;;97.95;93.05;;;;;;;;;;6132594;23;20028;-89
2024/01/06 05:24:23;;;;;;;96.93;91.78;;;;;;;;;;6154858;23;20032;-89
2024/01/06 05:27:07;;;;;;;101.80;96.35;;;;;;;;;;6131996;23;20098;-89
2024/01/06 05:29:51;;;;;;;101.57;96.25;;;;;;;;;;6132329;23;20098;-89
2024/01/06 05:32:36;;;;;;;106.00;100.57;;;;;;;;;;6131471;23;20444;-90
2024/01/06 05:35:20;;;;;;;101.65;96.53;;;;;;;;;;6132120;23;20017;-89
2024/01/06 05:38:04;;;;;;;102.07;96.55;;;;;;;;;;6131961;23;20025;-90
2024/01/06 05:40:48;;;;;;;99.97;94.88;;;;;;;;;;6131472;23;20127;-90
2024/01/06 05:43:32;;;;;;;101.25;96.32;;;;;;;;;;6153732;23;20048;-88
2024/01/06 05:46:22;;;;;;;106.15;100.75;;;;;;;;;;6131521;23;20088;-88
2024/01/06 05:49:08;;;;;;;108.40;102.82;;;;;;;;;;6131897;23;20029;-90
2024/01/06 05:51:52;;;;;;;107.40;102.00;;;;;;;;;;6131801;23;20021;-89
2024/01/06 05:54:36;;;;;;;104.38;99.38;;;;;;;;;;6131487;23;20024;-90
2024/01/06 05:57:20;;;;;;;110.03;104.72;;;;;;;;;;6131581;23;20075;-89
2024/01/06 06:00:08;;;;;;;105.82;100.60;;;;;;;;;;6131563;23;20025;-88
2024/01/06 06:02:52;;;;;;;101.97;97.22;;;;;;;;;;6131106;23;20117;-88
2024/01/06 06:05:36;;;;;;;104.47;99.38;;;;;;;;;;6131591;23;20020;-87
2024/01/06 06:08:20;;;;;;;103.45;98.43;;;;;;;;;;6130973;23;20389;-88
2024/01/06 06:11:10;;;;;;;101.75;96.85;;;;;;;;;;6131348;23;20017;-89
2024/01/06 06:13:54;;;;;;;104.55;99.65;;;;;;;;;;6131591;23;20066;-89
2024/01/06 06:16:38;;;;;;;101.25;96.35;;;;;;;;;;6131247;23;20056;-89
2024/01/06 06:19:22;;;;;;;99.32;94.32;;;;;;;;;;6130814;23;20025;-89
2024/01/06 06:22:06;;;;;;;97.88;93.22;;;;;;;;;;6131488;23;20119;-90
2024/01/06 06:24:50;;;;;;;101.43;96.55;;;;;;;;;;6130879;23;20025;-89
2024/01/06 06:27:35;;;;;;;104.70;99.70;;;;;;;;;;6130981;23;20056;-89
2024/01/06 06:30:19;;;;;;;104.32;99.22;;;;;;;;;;6131152;23;20020;-88
2024/01/06 06:33:03;;;;;;;106.43;100.78;;;;;;;;;;6131160;23;20024;-89
2024/01/06 06:35:47;;;;;;;102.53;97.18;;;;;;;;;;6131387;23;20024;-90
2024/01/06 06:38:31;;;;;;;104.32;99.20;;;;;;;;;;6130918;23;20025;-88
2024/01/06 06:41:16;;;;;;;100.38;94.72;;;;;;;;;;6132824;23;20340;-88
2024/01/06 06:44:00;;;;;;;97.82;92.78;;;;;;;;;;6131680;23;20029;-89
2024/01/06 06:46:43;;;;;;;106.22;101.10;;;;;;;;;;6131665;23;20024;-87
2024/01/06 06:49:27;;;;;;;98.82;94.13;;;;;;;;;;6131541;23;20470;-88
2024/01/06 06:52:13;;;;;;;104.03;98.88;;;;;;;;;;6154137;23;20093;-88
2024/01/06 06:54:57;;;;;;;97.55;92.38;;;;;;;;;;6132373;23;20048;-89
2024/01/06 06:57:41;;;;;;;97.45;92.10;;;;;;;;;;6132107;23;20052;-88
2024/01/06 07:00:25;;;;;;;97.28;92.47;;;;;;;;;;6131447;23;20024;-89
2024/01/06 07:03:09;;;;;;;101.03;94.90;;;;;;;;;;6131356;23;20029;-89
2024/01/06 07:05:53;;;;;;;98.88;94.05;;;;;;;;;;6132380;23;20020;-88
2024/01/06 07:08:38;;;;;;;96.50;91.88;;;;;;;;;;6130681;23;20044;-88
2024/01/06 07:11:22;;;;;;;90.88;86.28;;;;;;;;;;6130686;23;20340;-89
2024/01/06 07:14:06;;;;;;;92.20;87.32;;;;;;;;;;6130545;23;20028;-90
2024/01/06 07:16:50;;;;;;;91.78;86.75;;;;;;;;;;6129542;23;20332;-89
2024/01/06 07:19:34;;;;;;;87.82;83.72;;;;;;;;;;6130361;23;20093;-88
2024/01/06 07:22:18;;;;;;;94.20;88.65;;;;;;;;;;6129929;23;20025;-87
2024/01/06 07:25:02;;;;;;;92.20;87.90;;;;;;;;;;6130462;23;20094;-89
2024/01/06 07:27:46;;;;;;;88.25;84.13;;;;;;;;;;6130545;23;20020;-90
2024/01/06 07:30:30;;;;;;;93.32;88.85;;;;;;;;;;6129983;23;20093;-91
2024/01/06 07:33:14;;;;;;;89.68;84.97;;;;;;;;;;6130013;23;20106;-87
2024/01/06 07:35:58;;;;;;;91.50;86.82;;;;;;;;;;6129559;23;20024;-88
2024/01/06 07:38:42;;;;;;;90.93;86.80;;;;;;;;;;6129328;23;20020;-89
2024/01/06 07:41:25;;;;;;;89.55;85.38;;;;;;;;;;6129869;23;20028;-90
2024/01/06 07:44:10;;;;;;;92.50;88.03;;;;;;;;;;6129170;23;20075;-87
2024/01/06 07:46:53;;;;;;;91.15;86.05;;;;;;;;;;6130015;23;20017;-88
2024/01/06 07:49:37;;;;;;;90.60;86.03;;;;;;;;;;6151599;23;20374;-90
2024/01/06 07:52:24;;;;;;;91.70;87.13;;;;;;;;;;6130171;23;20017;-87
2024/01/06 07:55:08;;;;;;;87.55;82.97;;;;;;;;;;6130829;23;20079;-88
2024/01/06 07:57:53;;;;;;;84.55;80.15;;;;;;;;;;6130762;23;20021;-89
2024/01/06 08:00:37;;;;;;;90.45;86.35;;;;;;;;;;6130300;23;20020;-87
2024/01/06 08:03:21;;;;;;;93.60;88.85;;;;;;;;;;6130298;23;20079;-88
2024/01/06 08:06:08;;;;;;;92.45;88.18;;;;;;;;;;6152304;23;20021;-89
2024/01/06 08:08:52;;;;;;;89.13;84.32;;;;;;;;;;6130492;23;20017;-89
2024/01/06 08:11:36;;;;;;;89.50;85.03;;;;;;;;;;6130886;23;20024;-91
2024/01/06 08:14:20;;;;;;;88.15;83.82;;;;;;;;;;6130815;23;20074;-89
2024/01/06 08:17:04;;;;;;;88.65;84.55;;;;;;;;;;6130941;23;20097;-89
2024/01/06 08:19:47;;;;;;;93.90;89.15;;;;;;;;;;6130628;23;20021;-89
2024/01/06 08:22:36;;;;;;;92.55;87.88;;;;;;;;;;6130383;23;20044;-91
2024/01/06 08:25:20;;;;;;;95.68;90.32;;;;;;;;;;6130077;23;20118;-88
2024/01/06 08:28:05;;;;;;;95.45;90.78;;;;;;;;;;6130384;23;20021;-89
2024/01/06 08:30:49;;;;;;;94.25;89.75;;;;;;;;;;6130258;23;20020;-88
2024/01/06 08:33:33;;;;;;;93.10;88.47;;;;;;;;;;6129587;23;20151;-89
2024/01/06 08:36:17;;;;;;;92.38;87.45;;;;;;;;;;6130028;23;20028;-92
2024/01/06 08:39:01;;;;;;;87.82;83.45;;;;;;;;;;6130142;23;20024;-90
2024/01/06 08:41:45;;;;;;;89.38;85.22;;;;;;;;;;6130174;23;20036;-92
2024/01/06 08:44:29;;;;;;;89.45;85.05;;;;;;;;;;6151657;23;20021;-90
2024/01/06 08:47:13;;;;;;;96.13;91.13;;;;;;;;;;6130025;23;20426;-89
2024/01/06 08:49:57;;;;;;;89.43;85.25;;;;;;;;;;6129773;23;20017;-89
2024/01/06 08:52:41;;;;;;;84.45;80.22;;;;;;;;;;6129710;23;20024;-88
2024/01/06 08:55:25;;;;;;;81.68;77.20;;;;;;;;;;6151855;23;20415;-89
2024/01/06 08:58:08;;;;;;;82.43;78.03;;;;;;;;;;6130124;23;20071;-88
2024/01/06 09:00:53;;;;;;;81.72;77.63;;;;;;;;;;6151723;23;20381;-86
2024/01/06 09:03:37;;;;;;;84.38;79.85;;;;;;;;;;6129208;23;20040;-88
2024/01/06 09:06:21;;;;;;;83.70;79.75;;;;;;;;;;6130459;23;20020;-89
2024/01/06 09:09:05;;;;;;;87.25;82.70;;;;;;;;;;6129909;23;20048;-87
2024/01/06 09:11:52;;;;;;;84.75;80.38;;;;;;;;;;6133027;23;20024;-90
2024/01/06 09:14:37;;;;;;;77.82;73.70;;;;;;;;;;6130157;23;20032;-88
2024/01/06 09:17:34;;;;;;;76.75;72.72;;;;;;;;;;6129290;23;20055;-89
2024/01/06 09:20:22;;;;;;;81.65;77.22;;;;;;;;;;6130158;23;20070;-90
2024/01/06 09:23:32;;;;;;;82.15;77.78;;;;;;;;;;6129329;23;20048;-86
2024/01/06 09:26:26;;;;;;;81.72;77.50;;;;;;;;;;6129499;23;20344;-87
2024/01/06 09:29:10;;;;;;;84.10;79.47;;;;;;;;;;6129248;23;20139;-88
2024/01/06 09:31:55;;;;;;;81.10;76.35;;;;;;;;;;6129440;23;20020;-88
2024/01/06 09:35:01;;;;;;;80.63;76.72;;;;;;;;;;6129178;23;20025;-88
2024/01/06 09:37:52;;;;;;;82.43;77.82;;;;;;;;;;6129693;23;20463;-87
2024/01/06 09:40:41;;;;;;;77.15;73.45;;;;;;;;;;6128903;23;20483;-89
2024/01/06 09:43:27;;;;;;;79.70;75.20;;;;;;;;;;6129066;23;20024;-89
2024/01/06 09:46:29;;;;;;;76.95;72.82;;;;;;;;;;6129231;23;20052;-89
2024/01/06 09:49:25;;;;;;;80.45;75.75;;;;;;;;;;6128630;23;20067;-89
2024/01/06 09:52:14;;;;;;;81.10;76.43;;;;;;;;;;6128545;23;20543;-91
2024/01/06 09:54:59;;;;;;;81.32;77.22;;;;;;;;;;6128724;23;20032;-88
2024/01/06 09:57:45;;;;;;;80.03;75.88;;;;;;;;;;6128563;23;20493;-88
2024/01/06 10:00:29;;;;;;;72.97;69.00;;;;;;;;;;6128464;23;20025;-90
2024/01/06 10:03:13;;;;;;;78.82;74.53;;;;;;;;;;6128760;23;20020;-88
2024/01/06 10:06:02;;;;;;;76.70;72.82;;;;;;;;;;6128963;23;20344;-90
2024/01/06 10:08:51;;;;;;;71.15;67.57;;;;;;;;;;6128731;23;20047;-92
2024/01/06 10:11:41;;;;;;;77.18;73.15;;;;;;;;;;6128870;23;20348;-90
2024/01/06 10:14:25;;;;;;;72.18;68.57;;;;;;;;;;6128919;23;20068;-88
2024/01/06 10:17:09;;;;;;;74.03;70.15;;;;;;;;;;6166159;22;20075;-90
2024/01/06 10:19:54;;;;;;;70.00;66.00;;;;;;;;;;6165683;22;20074;-89
2024/01/06 10:22:39;;;;;;;80.88;76.57;;;;;;;;;;6277743;22;20018;-90
2024/01/06 10:25:31;;;;;;;81.30;76.57;;;;;;;;;;6167080;22;20038;-90
2024/01/06 10:28:18;;;;;;;74.15;70.00;;;;;;;;;;6167325;22;20079;-89
2024/01/06 10:31:02;;;;;;;74.13;70.57;;;;;;;;;;6167250;22;20018;-90
2024/01/06 10:33:48;;;;;;;76.15;71.90;;;;;;;;;;6167202;22;20023;-90
2024/01/06 10:36:32;;;;;;;75.82;72.20;;;;;;;;;;6167047;22;20022;-90
2024/01/06 10:39:16;;;;;;;77.82;73.68;;;;;;;;;;6167060;22;20065;-88
2024/01/06 10:42:01;;;;;;;72.35;68.85;;;;;;;;;;6165806;22;20025;-92
2024/01/06 10:44:45;;;;;;;75.38;71.47;;;;;;;;;;6165135;22;20061;-90
2024/01/06 10:47:31;;;;;;;73.18;69.40;;;;;;;;;;6167161;22;20019;-90
2024/01/06 10:50:17;;;;;;;74.85;70.63;;;;;;;;;;6277681;22;20019;-90
2024/01/06 10:53:03;;;;;;;76.00;72.03;;;;;;;;;;6167522;22;20026;-90
2024/01/06 10:55:48;;;;;;;80.50;76.80;;;;;;;;;;6167373;22;20023;-91
2024/01/06 10:58:33;;;;;;;76.55;72.80;;;;;;;;;;6167479;22;20057;-89
2024/01/06 11:01:28;;;;;;;73.65;69.85;;;;;;;;;;6165851;22;20019;-91
2024/01/06 11:04:13;;;;;;;79.00;75.35;;;;;;;;;;6165918;22;20019;-90
2024/01/06 11:06:57;;;;;;;71.10;66.75;;;;;;;;;;6165464;22;20068;-86
2024/01/06 11:09:54;;;;;;;71.85;68.38;;;;;;;;;;6276468;22;20019;-85
2024/01/06 11:12:38;;;;;;;73.28;69.90;;;;;;;;;;6165002;22;20511;-90
2024/01/06 11:15:38;;;;;;;70.60;67.15;;;;;;;;;;6165360;22;20054;-87
2024/01/06 11:18:40;;;;;;;69.57;66.28;;;;;;;;;;6159901;22;20048;-88
2024/01/06 11:21:25;;;;;;;70.55;66.80;;;;;;;;;;6128675;23;20104;-90
2024/01/06 11:24:16;;;;;;;73.38;69.88;;;;;;;;;;6128408;23;20470;-90
2024/01/06 11:27:01;;;;;;;73.03;69.05;;;;;;;;;;6128719;23;20344;-89
2024/01/06 11:29:45;;;;;;;73.50;69.97;;;;;;;;;;6129586;23;20063;-89
2024/01/06 11:32:35;;;;;;;77.93;74.10;;;;;;;;;;6151453;23;20024;-89
2024/01/06 11:35:19;;;;;;;75.55;71.40;;;;;;;;;;6128776;23;20016;-91
2024/01/06 11:38:04;;;;;;;73.60;69.47;;;;;;;;;;6129234;23;20020;-91
2024/01/06 11:40:48;;;;;;;68.82;65.07;;;;;;;;;;6128902;23;20085;-88
2024/01/06 11:43:34;;;;;;;76.93;72.72;;;;;;;;;;6129077;23;20047;-88
2024/01/06 11:46:19;;;;;;;77.28;73.25;;;;;;;;;;6150925;23;20353;-88
2024/01/06 11:49:03;;;;;;;72.45;68.70;;;;;;;;;;6128642;23;20015;-89
2024/01/06 11:51:47;;;;;;;72.97;69.68;;;;;;;;;;6129006;23;20020;-89
2024/01/06 11:54:32;;;;;;;74.82;70.65;;;;;;;;;;6129425;23;20019;-88
2024/01/06 11:57:16;;;;;;;78.35;73.90;;;;;;;;;;6129403;23;20096;-88
2024/01/06 12:00:00;;;;;;;75.55;71.97;;;;;;;;;;6129132;23;20466;-88
2024/01/06 12:02:44;;;;;;;77.90;74.20;;;;;;;;;;6128685;23;20075;-88
2024/01/06 12:05:28;;;;;;;78.38;74.43;;;;;;;;;;6128516;23;20093;-89
2024/01/06 12:08:12;;;;;;;71.10;67.43;;;;;;;;;;6150715;23;20048;-88
2024/01/06 12:11:03;;;;;;;73.07;69.60;;;;;;;;;;6128873;23;20463;-91
2024/01/06 12:13:47;;;;;;;79.72;75.80;;;;;;;;;;6128679;23;20020;-88
2024/01/06 12:16:32;;;;;;;74.95;71.55;;;;;;;;;;6128381;23;20075;-89
2024/01/06 12:19:16;;;;;;;76.40;72.68;;;;;;;;;;6128815;23;20021;-89
2024/01/06 12:22:01;;;;;;;78.10;73.97;;;;;;;;;;6128805;23;20021;-87
2024/01/06 12:24:45;;;;;;;69.57;65.97;;;;;;;;;;6128469;23;20025;-88
2024/01/06 12:27:29;;;;;;;67.75;64.10;;;;;;;;;;6128898;23;20052;-88
2024/01/06 12:30:16;;;;;;;66.32;62.78;;;;;;;;;;6128396;23;20059;-88
2024/01/06 12:33:01;;;;;;;70.38;66.60;;;;;;;;;;6128449;23;20024;-88
2024/01/06 12:35:45;;;;;;;69.95;66.47;;;;;;;;;;6150467;23;20040;-87
2024/01/06 12:38:29;;;;;;;64.75;61.30;;;;;;;;;;6128610;23;20024;-90
2024/01/06 12:41:14;;;;;;;65.15;61.80;;;;;;;;;;6151948;23;20028;-88
2024/01/06 12:43:59;;;;;;;75.13;70.85;;;;;;;;;;6128602;23;20024;-87
2024/01/06 12:46:43;;;;;;;72.95;68.72;;;;;;;;;;6129123;23;20056;-88
2024/01/06 12:49:28;;;;;;;71.65;68.13;;;;;;;;;;6151140;23;20009;-88
2024/01/06 12:52:17;;;;;;;74.32;70.35;;;;;;;;;;6129468;23;20032;-88
2024/01/06 12:55:03;;;;;;;74.20;69.43;;;;;;;;;;6151113;23;20071;-88
2024/01/06 12:57:47;;;;;;;75.97;71.55;;;;;;;;;;6129478;23;20012;-87
2024/01/06 13:00:31;;;;;;;78.30;74.40;;;;;;;;;;6151105;23;20090;-87
2024/01/06 13:03:15;;;;;;;73.53;70.15;;;;;;;;;;6127772;23;20395;-87
2024/01/06 13:06:02;;;;;;;72.00;68.47;;;;;;;;;;6129570;23;20051;-88
2024/01/06 13:08:47;;;;;;;66.63;62.78;;;;;;;;;;6151522;23;20131;-89
2024/01/06 13:11:31;;;;;;;66.18;62.75;;;;;;;;;;6128136;23;20016;-89
2024/01/06 13:14:15;;;;;;;69.50;66.10;;;;;;;;;;6149802;23;20025;-87
2024/01/06 13:17:02;;;;;;;67.40;63.58;;;;;;;;;;6128558;23;20124;-90
2024/01/06 13:19:46;;;;;;;70.03;66.55;;;;;;;;;;6128027;23;20043;-88
2024/01/06 13:22:34;;;;;;;68.63;65.25;;;;;;;;;;6128524;23;20024;-87
2024/01/06 13:25:19;;;;;;;66.43;63.03;;;;;;;;;;6130232;23;20071;-87
2024/01/06 13:28:05;;;;;;;69.13;64.95;;;;;;;;;;6131521;23;20474;-88
2024/01/06 13:30:50;;;;;;;70.15;66.38;;;;;;;;;;6130569;23;20043;-88
2024/01/06 13:33:34;;;;;;;71.90;68.32;;;;;;;;;;6128790;23;20043;-88
2024/01/06 13:36:20;;;;;;;68.20;64.85;;;;;;;;;;6128701;23;20513;-88
2024/01/06 13:39:04;;;;;;;62.50;59.25;;;;;;;;;;6129628;23;20032;-88
2024/01/06 13:41:49;;;;;;;70.30;66.25;;;;;;;;;;6129888;23;20097;-88
2024/01/06 13:44:33;;;;;;;71.43;68.10;;;;;;;;;;6129054;23;20466;-87
2024/01/06 13:47:17;;;;;;;71.90;67.88;;;;;;;;;;6129634;23;20071;-88
2024/01/06 13:50:01;;;;;;;69.20;65.60;;;;;;;;;;6129483;23;20064;-89
2024/01/06 13:52:46;;;;;;;71.80;68.03;;;;;;;;;;6128404;23;20323;-89
2024/01/06 13:55:30;;;;;;;66.28;62.88;;;;;;;;;;6129589;23;20067;-87
2024/01/06 13:58:14;;;;;;;66.72;63.08;;;;;;;;;;6129135;23;20063;-87
2024/01/06 14:00:58;;;;;;;68.22;64.32;;;;;;;;;;6128844;23;20020;-86
2024/01/06 14:03:42;;;;;;;61.92;58.45;;;;;;;;;;6128843;23;20505;-85
2024/01/06 14:06:32;;;;;;;60.22;56.58;;;;;;;;;;6150724;23;20020;-87
2024/01/06 14:09:16;;;;;;;53.20;50.05;;;;;;;;;;6129212;23;20020;-86
2024/01/06 14:12:00;;;;;;;56.67;53.22;;;;;;;;;;6150611;23;20063;-86
2024/01/06 14:14:44;;;;;;;58.67;55.65;;;;;;;;;;6127675;23;20024;-87
2024/01/06 14:17:28;;;;;;;58.55;55.72;;;;;;;;;;6129826;23;20368;-86
2024/01/06 14:20:12;;;;;;;62.15;58.78;;;;;;;;;;6129496;23;20020;-86
2024/01/06 14:22:56;;;;;;;61.25;57.92;;;;;;;;;;6129328;23;20547;-85
2024/01/06 14:25:40;;;;;;;61.42;58.13;;;;;;;;;;6129422;23;20139;-87
2024/01/06 14:28:25;;;;;;;59.05;56.03;;;;;;;;;;6129475;23;20064;-88
2024/01/06 14:31:18;;;;;;;63.97;60.38;;;;;;;;;;6131430;23;20024;-89
2024/01/06 14:34:02;;;;;;;62.45;58.67;;;;;;;;;;6130512;23;20493;-86
2024/01/06 14:36:49;;;;;;;61.03;57.63;;;;;;;;;;6149898;23;20024;-82
2024/01/06 14:39:34;;;;;;;63.53;59.65;;;;;;;;;;6150417;23;20025;-87
2024/01/06 14:42:52;;;;;;;66.25;62.75;;;;;;;;;;6128720;23;20056;-86
2024/01/06 14:45:36;;;;;;;67.55;63.58;;;;;;;;;;6128104;23;20039;-84
2024/01/06 14:48:23;;;;;;;63.15;59.65;;;;;;;;;;6127333;23;20021;-84
2024/01/06 14:51:07;;;;;;;65.47;61.75;;;;;;;;;;6126866;23;20020;-85
2024/01/06 14:53:51;;;;;;;64.00;60.33;;;;;;;;;;6127485;23;20024;-87
2024/01/06 14:56:39;;;;;;;63.92;60.10;;;;;;;;;;6127342;23;20478;-89
2024/01/06 14:59:23;;;;;;;61.20;57.58;;;;;;;;;;6129123;23;20025;-89
2024/01/06 15:02:07;;;;;;;60.42;57.13;;;;;;;;;;6129159;23;20060;-88
2024/01/06 15:04:51;;;;;;;57.90;54.03;;;;;;;;;;6130604;23;20020;-90
2024/01/06 15:07:37;;;;;;;59.78;55.75;;;;;;;;;;6130236;23;20461;-89
2024/01/06 15:10:22;;;;;;;59.90;55.58;;;;;;;;;;6130563;23;20016;-86
2024/01/06 15:13:09;;;;;;;59.78;56.25;;;;;;;;;;6130334;23;20047;-87
2024/01/06 15:15:55;;;;;;;53.55;50.20;;;;;;;;;;6130943;23;20493;-88
2024/01/06 15:18:39;;;;;;;51.33;48.25;;;;;;;;;;6130871;23;20056;-89
2024/01/06 15:21:27;;;;;;;47.08;44.13;;;;;;;;;;6131970;23;20344;-87
2024/01/06 15:24:19;;;;;;;47.83;44.83;;;;;;;;;;6130833;23;20029;-87
2024/01/06 15:27:03;;;;;;;51.10;47.63;;;;;;;;;;6130514;23;20056;-87
2024/01/06 15:29:47;;;;;;;55.30;51.78;;;;;;;;;;6152268;23;20361;-87
2024/01/06 15:32:31;;;;;;;56.13;51.83;;;;;;;;;;6130289;23;20385;-89
2024/01/06 15:35:19;;;;;;;53.05;49.70;;;;;;;;;;6153748;23;20056;-87
2024/01/06 15:38:03;;;;;;;48.50;45.30;;;;;;;;;;6133361;23;20066;-89
2024/01/06 15:40:47;;;;;;;49.80;46.30;;;;;;;;;;6132420;23;20024;-90
2024/01/06 15:43:31;;;;;;;48.55;45.78;;;;;;;;;;6132373;23;20093;-90
2024/01/06 15:46:20;;;;;;;49.67;46.80;;;;;;;;;;6131074;23;20021;-88
2024/01/06 15:49:04;;;;;;;47.35;43.75;;;;;;;;;;6130066;23;20021;-87
2024/01/06 15:51:51;;;;;;;45.95;43.05;;;;;;;;;;6131196;23;20059;-89
2024/01/06 15:54:35;;;;;;;48.08;44.88;;;;;;;;;;6131148;23;20353;-87
2024/01/06 15:57:19;;;;;;;46.80;43.63;;;;;;;;;;6129938;23;20094;-90
2024/01/06 16:00:04;;;;;;;43.58;40.03;;;;;;;;;;6131171;23;20106;-89
2024/01/06 16:02:48;;;;;;;42.05;38.70;;;;;;;;;;6131018;23;20094;-89
2024/01/06 16:05:31;;;;;;;44.30;41.28;;;;;;;;;;6131028;23;20017;-88
2024/01/06 16:08:15;;;;;;;41.95;39.03;;;;;;;;;;6129752;23;20059;-89
2024/01/06 16:10:59;;;;;;;42.47;38.72;;;;;;;;;;6130284;23;20506;-88
2024/01/06 16:17:17;;;;;;;42.03;39.07;;;;;;;;;;6150108;23;20020;-88
2024/01/06 16:20:01;;;;;;;40.65;37.80;;;;;;;;;;6127574;23;20318;-88
2024/01/06 16:22:46;;;;;;;43.22;40.00;;;;;;;;;;6149609;23;20455;-89
2024/01/06 16:25:30;;;;;;;41.13;38.40;;;;;;;;;;6127942;23;20023;-87
2024/01/06 16:28:14;;;;;;;38.70;36.10;;;;;;;;;;6128803;23;20452;-87
2024/01/06 16:30:58;;;;;;;37.92;35.08;;;;;;;;;;6128825;23;20404;-86
2024/01/06 16:33:41;;;;;;;37.05;33.97;;;;;;;;;;6129335;23;20064;-88
2024/01/06 16:36:25;;;;;;;44.65;40.72;;;;;;;;;;6131071;23;20047;-90
2024/01/06 16:39:10;;;;;;;39.40;36.10;;;;;;;;;;6130912;23;20067;-86
2024/01/06 16:42:08;;;;;;;39.08;35.53;;;;;;;;;;6129976;23;20060;-89
2024/01/06 16:44:54;;;;;;;35.75;32.50;;;;;;;;;;6132150;23;20020;-88
2024/01/06 16:47:48;;;;;;;34.25;31.23;;;;;;;;;;6131306;23;20016;-91
2024/01/06 16:50:32;;;;;;;32.50;29.52;;;;;;;;;;6150676;23;20021;-86
2024/01/06 16:53:16;;;;;;;32.55;29.52;;;;;;;;;;6150435;23;20024;-86
2024/01/06 16:56:02;;;;;;;34.03;31.02;;;;;;;;;;6127796;23;20040;-87
2024/01/06 16:58:50;;;;;;;32.03;29.15;;;;;;;;;;6150771;23;20036;-89